sensor_id;sensor_type;location;lat;lon;timestamp;P1;durP1;ratioP1;P2;durP2;ratioP2
6598;SDS011;3335;43.198;27.918;2022-09-25T00:08:03;3.37;;;2.97;;
6598;SDS011;3335;43.198;27.918;2022-09-25T00:11:06;9.13;;;3.10;;
6598;SDS011;3335;43.198;27.918;2022-09-25T00:16:43;3.10;;;2.80;;
6598;SDS011;3335;43.198;27.918;2022-09-25T00:19:46;8.33;;;2.77;;
6598;SDS011;3335;43.198;27.918;2022-09-25T00:29:13;3.03;;;2.73;;
6598;SDS011;3335;43.198;27.918;2022-09-25T00:32:24;5.93;;;3.20;;
6598;SDS011;3335;43.198;27.918;2022-09-25T00:39:17;4.50;;;3.60;;
6598;SDS011;3335;43.198;27.918;2022-09-25T00:41:59;3.90;;;3.23;;
6598;SDS011;3335;43.198;27.918;2022-09-25T00:45:18;3.77;;;3.07;;
6598;SDS011;3335;43.198;27.918;2022-09-25T00:48:19;5.07;;;2.83;;
6598;SDS011;3335;43.198;27.918;2022-09-25T01:00:53;4.93;;;3.73;;
6598;SDS011;3335;43.198;27.918;2022-09-25T01:03:54;5.20;;;3.43;;
6598;SDS011;3335;43.198;27.918;2022-09-25T01:06:35;6.50;;;3.57;;
6598;SDS011;3335;43.198;27.918;2022-09-25T01:09:02;4.90;;;3.83;;
6598;SDS011;3335;43.198;27.918;2022-09-25T01:11:31;6.53;;;4.30;;
6598;SDS011;3335;43.198;27.918;2022-09-25T01:14:01;6.03;;;3.37;;
6598;SDS011;3335;43.198;27.918;2022-09-25T01:16:36;9.60;;;3.90;;
6598;SDS011;3335;43.198;27.918;2022-09-25T01:19:17;4.73;;;3.60;;
6598;SDS011;3335;43.198;27.918;2022-09-25T01:21:59;6.63;;;4.23;;
6598;SDS011;3335;43.198;27.918;2022-09-25T01:24:54;5.13;;;3.80;;
6598;SDS011;3335;43.198;27.918;2022-09-25T01:30:40;7.50;;;4.43;;
6598;SDS011;3335;43.198;27.918;2022-09-25T01:33:13;12.17;;;5.50;;
6598;SDS011;3335;43.198;27.918;2022-09-25T01:35:48;8.70;;;5.50;;
6598;SDS011;3335;43.198;27.918;2022-09-25T01:38:30;11.00;;;5.90;;
6598;SDS011;3335;43.198;27.918;2022-09-25T01:41:08;9.40;;;5.57;;
6598;SDS011;3335;43.198;27.918;2022-09-25T01:43:45;7.17;;;5.37;;
6598;SDS011;3335;43.198;27.918;2022-09-25T01:46:21;8.43;;;5.50;;
6598;SDS011;3335;43.198;27.918;2022-09-25T01:48:52;9.17;;;5.13;;
6598;SDS011;3335;43.198;27.918;2022-09-25T01:51:25;11.57;;;5.33;;
6598;SDS011;3335;43.198;27.918;2022-09-25T01:54:01;7.07;;;4.80;;
6598;SDS011;3335;43.198;27.918;2022-09-25T01:56:37;10.20;;;5.33;;
6598;SDS011;3335;43.198;27.918;2022-09-25T01:59:15;9.60;;;5.50;;
6598;SDS011;3335;43.198;27.918;2022-09-25T02:01:54;8.47;;;5.37;;
6598;SDS011;3335;43.198;27.918;2022-09-25T02:04:27;14.13;;;5.97;;
6598;SDS011;3335;43.198;27.918;2022-09-25T02:07:02;8.13;;;4.77;;
6598;SDS011;3335;43.198;27.918;2022-09-25T02:09:33;12.87;;;5.40;;
6598;SDS011;3335;43.198;27.918;2022-09-25T02:12:07;6.83;;;4.43;;
6598;SDS011;3335;43.198;27.918;2022-09-25T02:14:40;6.50;;;4.37;;
6598;SDS011;3335;43.198;27.918;2022-09-25T02:20:38;11.83;;;5.73;;
6598;SDS011;3335;43.198;27.918;2022-09-25T02:23:14;8.23;;;5.43;;
6598;SDS011;3335;43.198;27.918;2022-09-25T02:25:46;8.70;;;5.40;;
6598;SDS011;3335;43.198;27.918;2022-09-25T02:28:31;10.73;;;5.30;;
6598;SDS011;3335;43.198;27.918;2022-09-25T02:30:59;10.43;;;5.33;;
6598;SDS011;3335;43.198;27.918;2022-09-25T02:33:36;8.00;;;5.27;;
6598;SDS011;3335;43.198;27.918;2022-09-25T02:36:18;12.60;;;7.43;;
6598;SDS011;3335;43.198;27.918;2022-09-25T02:38:51;23.70;;;12.43;;
6598;SDS011;3335;43.198;27.918;2022-09-25T02:41:27;20.33;;;11.43;;
6598;SDS011;3335;43.198;27.918;2022-09-25T02:44:10;23.93;;;11.43;;
6598;SDS011;3335;43.198;27.918;2022-09-25T02:46:54;23.10;;;11.97;;
6598;SDS011;3335;43.198;27.918;2022-09-25T02:49:54;20.30;;;10.27;;
6598;SDS011;3335;43.198;27.918;2022-09-25T02:52:34;18.80;;;9.43;;
6598;SDS011;3335;43.198;27.918;2022-09-25T02:55:11;14.63;;;8.03;;
6598;SDS011;3335;43.198;27.918;2022-09-25T02:57:50;12.67;;;7.80;;
6598;SDS011;3335;43.198;27.918;2022-09-25T03:00:22;12.80;;;7.53;;
6598;SDS011;3335;43.198;27.918;2022-09-25T03:02:52;13.23;;;6.17;;
6598;SDS011;3335;43.198;27.918;2022-09-25T03:05:34;14.00;;;7.17;;
6598;SDS011;3335;43.198;27.918;2022-09-25T03:09:02;11.63;;;6.40;;
6598;SDS011;3335;43.198;27.918;2022-09-25T03:11:34;11.27;;;6.37;;
6598;SDS011;3335;43.198;27.918;2022-09-25T03:14:05;14.37;;;7.83;;
6598;SDS011;3335;43.198;27.918;2022-09-25T03:16:36;12.40;;;7.57;;
6598;SDS011;3335;43.198;27.918;2022-09-25T03:19:48;11.47;;;6.97;;
6598;SDS011;3335;43.198;27.918;2022-09-25T03:25:43;15.80;;;6.90;;
6598;SDS011;3335;43.198;27.918;2022-09-25T03:28:23;11.07;;;6.90;;
6598;SDS011;3335;43.198;27.918;2022-09-25T03:30:55;13.77;;;6.93;;
6598;SDS011;3335;43.198;27.918;2022-09-25T03:40:16;16.33;;;8.00;;
6598;SDS011;3335;43.198;27.918;2022-09-25T03:42:47;13.53;;;7.83;;
6598;SDS011;3335;43.198;27.918;2022-09-25T03:45:20;12.50;;;6.87;;
6598;SDS011;3335;43.198;27.918;2022-09-25T03:47:50;11.53;;;7.07;;
6598;SDS011;3335;43.198;27.918;2022-09-25T03:50:21;16.60;;;7.60;;
6598;SDS011;3335;43.198;27.918;2022-09-25T03:52:49;15.30;;;8.13;;
6598;SDS011;3335;43.198;27.918;2022-09-25T03:55:17;15.57;;;6.97;;
6598;SDS011;3335;43.198;27.918;2022-09-25T03:57:46;16.07;;;7.97;;
6598;SDS011;3335;43.198;27.918;2022-09-25T04:00:14;12.27;;;7.17;;
6598;SDS011;3335;43.198;27.918;2022-09-25T04:02:44;14.07;;;7.20;;
6598;SDS011;3335;43.198;27.918;2022-09-25T04:05:13;13.57;;;8.23;;
6598;SDS011;3335;43.198;27.918;2022-09-25T04:07:41;15.73;;;7.90;;
6598;SDS011;3335;43.198;27.918;2022-09-25T04:10:13;13.53;;;7.77;;
6598;SDS011;3335;43.198;27.918;2022-09-25T04:12:41;15.70;;;7.17;;
6598;SDS011;3335;43.198;27.918;2022-09-25T04:15:18;14.57;;;7.77;;
6598;SDS011;3335;43.198;27.918;2022-09-25T04:18:29;13.73;;;7.70;;
6598;SDS011;3335;43.198;27.918;2022-09-25T04:27:38;13.47;;;8.37;;
6598;SDS011;3335;43.198;27.918;2022-09-25T04:37:45;16.67;;;9.13;;
6598;SDS011;3335;43.198;27.918;2022-09-25T04:43:23;15.00;;;9.00;;
6598;SDS011;3335;43.198;27.918;2022-09-25T04:56:18;17.57;;;9.17;;
6598;SDS011;3335;43.198;27.918;2022-09-25T04:59:28;17.63;;;10.00;;
6598;SDS011;3335;43.198;27.918;2022-09-25T05:02:56;18.77;;;10.37;;
6598;SDS011;3335;43.198;27.918;2022-09-25T05:16:01;27.67;;;15.17;;
6598;SDS011;3335;43.198;27.918;2022-09-25T05:18:33;28.33;;;15.60;;
6598;SDS011;3335;43.198;27.918;2022-09-25T05:23:58;24.83;;;15.17;;
6598;SDS011;3335;43.198;27.918;2022-09-25T05:26:28;34.00;;;16.10;;
6598;SDS011;3335;43.198;27.918;2022-09-25T05:28:59;27.83;;;15.77;;
6598;SDS011;3335;43.198;27.918;2022-09-25T05:31:27;30.97;;;17.57;;
6598;SDS011;3335;43.198;27.918;2022-09-25T05:33:56;33.27;;;17.37;;
6598;SDS011;3335;43.198;27.918;2022-09-25T05:36:25;39.33;;;16.27;;
6598;SDS011;3335;43.198;27.918;2022-09-25T05:38:55;32.27;;;15.83;;
6598;SDS011;3335;43.198;27.918;2022-09-25T05:41:27;30.17;;;16.40;;
6598;SDS011;3335;43.198;27.918;2022-09-25T05:43:55;33.83;;;19.67;;
6598;SDS011;3335;43.198;27.918;2022-09-25T05:46:24;39.37;;;21.00;;
6598;SDS011;3335;43.198;27.918;2022-09-25T05:48:59;46.07;;;24.57;;
6598;SDS011;3335;43.198;27.918;2022-09-25T05:51:49;44.63;;;23.63;;
6598;SDS011;3335;43.198;27.918;2022-09-25T05:54:18;55.53;;;27.17;;
6598;SDS011;3335;43.198;27.918;2022-09-25T05:56:48;41.73;;;24.50;;
6598;SDS011;3335;43.198;27.918;2022-09-25T05:59:17;43.93;;;24.17;;
6598;SDS011;3335;43.198;27.918;2022-09-25T06:01:45;53.27;;;23.63;;
6598;SDS011;3335;43.198;27.918;2022-09-25T06:04:14;39.30;;;22.63;;
6598;SDS011;3335;43.198;27.918;2022-09-25T06:06:41;38.93;;;21.23;;
6598;SDS011;3335;43.198;27.918;2022-09-25T06:09:11;42.13;;;21.80;;
6598;SDS011;3335;43.198;27.918;2022-09-25T06:11:39;45.67;;;23.37;;
6598;SDS011;3335;43.198;27.918;2022-09-25T06:14:19;49.03;;;25.07;;
6598;SDS011;3335;43.198;27.918;2022-09-25T06:16:47;49.23;;;24.37;;
6598;SDS011;3335;43.198;27.918;2022-09-25T06:19:15;44.63;;;23.60;;
6598;SDS011;3335;43.198;27.918;2022-09-25T06:21:43;46.40;;;25.43;;
6598;SDS011;3335;43.198;27.918;2022-09-25T06:24:18;38.67;;;22.20;;
6598;SDS011;3335;43.198;27.918;2022-09-25T06:26:46;55.73;;;25.83;;
6598;SDS011;3335;43.198;27.918;2022-09-25T06:29:25;38.23;;;22.90;;
6598;SDS011;3335;43.198;27.918;2022-09-25T06:31:55;41.63;;;22.73;;
6598;SDS011;3335;43.198;27.918;2022-09-25T06:34:28;47.00;;;24.57;;
6598;SDS011;3335;43.198;27.918;2022-09-25T06:37:00;44.07;;;22.97;;
6598;SDS011;3335;43.198;27.918;2022-09-25T06:39:38;41.10;;;23.20;;
6598;SDS011;3335;43.198;27.918;2022-09-25T06:42:06;41.30;;;22.67;;
6598;SDS011;3335;43.198;27.918;2022-09-25T06:44:40;41.10;;;22.70;;
6598;SDS011;3335;43.198;27.918;2022-09-25T06:47:40;42.33;;;23.43;;
6598;SDS011;3335;43.198;27.918;2022-09-25T06:50:08;41.50;;;22.17;;
6598;SDS011;3335;43.198;27.918;2022-09-25T06:52:40;50.53;;;23.57;;
6598;SDS011;3335;43.198;27.918;2022-09-25T06:55:09;43.43;;;24.07;;
6598;SDS011;3335;43.198;27.918;2022-09-25T06:57:36;43.50;;;23.03;;
6598;SDS011;3335;43.198;27.918;2022-09-25T07:00:06;42.40;;;22.30;;
6598;SDS011;3335;43.198;27.918;2022-09-25T07:02:34;41.87;;;23.03;;
6598;SDS011;3335;43.198;27.918;2022-09-25T07:05:18;38.67;;;21.47;;
6598;SDS011;3335;43.198;27.918;2022-09-25T07:07:45;48.07;;;22.67;;
6598;SDS011;3335;43.198;27.918;2022-09-25T07:10:12;42.23;;;24.13;;
6598;SDS011;3335;43.198;27.918;2022-09-25T07:12:40;44.87;;;23.03;;
6598;SDS011;3335;43.198;27.918;2022-09-25T07:15:09;39.20;;;22.00;;
6598;SDS011;3335;43.198;27.918;2022-09-25T07:17:40;36.30;;;21.53;;
6598;SDS011;3335;43.198;27.918;2022-09-25T07:20:08;36.93;;;21.47;;
6598;SDS011;3335;43.198;27.918;2022-09-25T07:22:37;38.60;;;20.73;;
6598;SDS011;3335;43.198;27.918;2022-09-25T07:25:04;34.57;;;20.80;;
6598;SDS011;3335;43.198;27.918;2022-09-25T07:27:32;35.43;;;21.57;;
6598;SDS011;3335;43.198;27.918;2022-09-25T07:30:00;37.73;;;22.03;;
6598;SDS011;3335;43.198;27.918;2022-09-25T07:32:29;31.60;;;20.10;;
6598;SDS011;3335;43.198;27.918;2022-09-25T07:34:57;28.67;;;19.07;;
6598;SDS011;3335;43.198;27.918;2022-09-25T07:37:24;33.33;;;18.20;;
6598;SDS011;3335;43.198;27.918;2022-09-25T07:39:51;29.73;;;16.87;;
6598;SDS011;3335;43.198;27.918;2022-09-25T07:42:19;27.70;;;16.10;;
6598;SDS011;3335;43.198;27.918;2022-09-25T07:44:46;24.53;;;16.43;;
6598;SDS011;3335;43.198;27.918;2022-09-25T07:47:13;27.17;;;16.80;;
6598;SDS011;3335;43.198;27.918;2022-09-25T07:49:42;18.90;;;12.20;;
6598;SDS011;3335;43.198;27.918;2022-09-25T07:52:11;19.50;;;11.67;;
6598;SDS011;3335;43.198;27.918;2022-09-25T07:54:42;16.67;;;9.17;;
6598;SDS011;3335;43.198;27.918;2022-09-25T07:57:10;9.47;;;6.97;;
6598;SDS011;3335;43.198;27.918;2022-09-25T07:59:38;9.60;;;6.43;;
6598;SDS011;3335;43.198;27.918;2022-09-25T08:02:07;7.40;;;5.90;;
6598;SDS011;3335;43.198;27.918;2022-09-25T08:04:35;7.63;;;6.00;;
6598;SDS011;3335;43.198;27.918;2022-09-25T08:07:04;10.13;;;6.90;;
6598;SDS011;3335;43.198;27.918;2022-09-25T08:09:32;8.50;;;5.80;;
6598;SDS011;3335;43.198;27.918;2022-09-25T08:11:59;6.67;;;5.40;;
6598;SDS011;3335;43.198;27.918;2022-09-25T08:14:28;6.83;;;5.17;;
6598;SDS011;3335;43.198;27.918;2022-09-25T08:16:57;8.33;;;5.67;;
6598;SDS011;3335;43.198;27.918;2022-09-25T08:19:25;9.00;;;6.43;;
6598;SDS011;3335;43.198;27.918;2022-09-25T08:21:53;10.10;;;6.80;;
6598;SDS011;3335;43.198;27.918;2022-09-25T08:32:14;7.93;;;5.87;;
6598;SDS011;3335;43.198;27.918;2022-09-25T08:34:43;10.03;;;5.87;;
6598;SDS011;3335;43.198;27.918;2022-09-25T08:37:11;6.07;;;4.97;;
6598;SDS011;3335;43.198;27.918;2022-09-25T08:39:39;5.43;;;4.87;;
6598;SDS011;3335;43.198;27.918;2022-09-25T08:42:12;6.97;;;5.03;;
6598;SDS011;3335;43.198;27.918;2022-09-25T08:44:46;9.30;;;5.60;;
6598;SDS011;3335;43.198;27.918;2022-09-25T08:47:37;8.17;;;5.50;;
6598;SDS011;3335;43.198;27.918;2022-09-25T08:50:24;6.27;;;5.20;;
6598;SDS011;3335;43.198;27.918;2022-09-25T08:52:59;6.47;;;5.77;;
6598;SDS011;3335;43.198;27.918;2022-09-25T08:55:32;5.20;;;4.70;;
6598;SDS011;3335;43.198;27.918;2022-09-25T08:58:19;5.73;;;5.17;;
6598;SDS011;3335;43.198;27.918;2022-09-25T09:00:56;5.00;;;4.50;;
6598;SDS011;3335;43.198;27.918;2022-09-25T09:03:32;7.93;;;5.23;;
6598;SDS011;3335;43.198;27.918;2022-09-25T09:06:09;6.87;;;5.40;;
6598;SDS011;3335;43.198;27.918;2022-09-25T09:08:41;6.80;;;4.63;;
6598;SDS011;3335;43.198;27.918;2022-09-25T09:11:17;5.50;;;5.00;;
6598;SDS011;3335;43.198;27.918;2022-09-25T09:13:52;4.93;;;4.53;;
6598;SDS011;3335;43.198;27.918;2022-09-25T09:16:29;4.53;;;4.13;;
6598;SDS011;3335;43.198;27.918;2022-09-25T09:19:05;6.10;;;4.57;;
6598;SDS011;3335;43.198;27.918;2022-09-25T09:21:36;6.73;;;5.43;;
6598;SDS011;3335;43.198;27.918;2022-09-25T09:24:05;4.60;;;4.20;;
6598;SDS011;3335;43.198;27.918;2022-09-25T09:26:43;5.40;;;4.90;;
6598;SDS011;3335;43.198;27.918;2022-09-25T09:29:38;5.67;;;4.10;;
6598;SDS011;3335;43.198;27.918;2022-09-25T09:32:29;5.87;;;3.93;;
6598;SDS011;3335;43.198;27.918;2022-09-25T09:35:14;4.73;;;4.30;;
6598;SDS011;3335;43.198;27.918;2022-09-25T09:37:52;4.60;;;4.20;;
6598;SDS011;3335;43.198;27.918;2022-09-25T09:40:35;4.87;;;4.27;;
6598;SDS011;3335;43.198;27.918;2022-09-25T09:43:25;5.53;;;3.73;;
6598;SDS011;3335;43.198;27.918;2022-09-25T09:46:11;4.13;;;3.70;;
6598;SDS011;3335;43.198;27.918;2022-09-25T09:48:48;5.37;;;4.17;;
6598;SDS011;3335;43.198;27.918;2022-09-25T09:51:29;5.30;;;4.40;;
6598;SDS011;3335;43.198;27.918;2022-09-25T09:54:02;4.23;;;3.63;;
6598;SDS011;3335;43.198;27.918;2022-09-25T09:56:39;4.80;;;4.13;;
6598;SDS011;3335;43.198;27.918;2022-09-25T09:59:13;4.10;;;3.70;;
6598;SDS011;3335;43.198;27.918;2022-09-25T10:01:44;3.73;;;3.27;;
6598;SDS011;3335;43.198;27.918;2022-09-25T10:04:18;4.57;;;3.87;;
6598;SDS011;3335;43.198;27.918;2022-09-25T10:06:51;4.17;;;3.57;;
6598;SDS011;3335;43.198;27.918;2022-09-25T10:09:24;4.30;;;3.60;;
6598;SDS011;3335;43.198;27.918;2022-09-25T10:11:54;4.73;;;3.87;;
6598;SDS011;3335;43.198;27.918;2022-09-25T10:14:28;3.30;;;3.00;;
6598;SDS011;3335;43.198;27.918;2022-09-25T10:17:02;4.60;;;3.30;;
6598;SDS011;3335;43.198;27.918;2022-09-25T10:19:33;3.60;;;3.30;;
6598;SDS011;3335;43.198;27.918;2022-09-25T10:22:14;4.50;;;3.27;;
6598;SDS011;3335;43.198;27.918;2022-09-25T10:24:47;2.63;;;2.43;;
6598;SDS011;3335;43.198;27.918;2022-09-25T10:27:19;4.17;;;2.60;;
6598;SDS011;3335;43.198;27.918;2022-09-25T10:30:00;3.07;;;2.77;;
6598;SDS011;3335;43.198;27.918;2022-09-25T10:32:50;3.20;;;2.63;;
6598;SDS011;3335;43.198;27.918;2022-09-25T10:35:25;3.17;;;2.50;;
6598;SDS011;3335;43.198;27.918;2022-09-25T10:37:56;3.87;;;2.77;;
6598;SDS011;3335;43.198;27.918;2022-09-25T10:40:27;2.53;;;2.20;;
6598;SDS011;3335;43.198;27.918;2022-09-25T10:43:01;2.83;;;2.33;;
6598;SDS011;3335;43.198;27.918;2022-09-25T10:45:32;2.63;;;2.27;;
6598;SDS011;3335;43.198;27.918;2022-09-25T10:48:07;4.03;;;2.40;;
6598;SDS011;3335;43.198;27.918;2022-09-25T10:51:08;3.07;;;2.77;;
6598;SDS011;3335;43.198;27.918;2022-09-25T10:53:39;2.40;;;2.20;;
6598;SDS011;3335;43.198;27.918;2022-09-25T10:56:08;2.93;;;2.63;;
6598;SDS011;3335;43.198;27.918;2022-09-25T10:58:41;2.70;;;2.47;;
6598;SDS011;3335;43.198;27.918;2022-09-25T11:01:12;3.73;;;2.43;;
6598;SDS011;3335;43.198;27.918;2022-09-25T11:03:44;2.60;;;2.30;;
6598;SDS011;3335;43.198;27.918;2022-09-25T11:06:17;2.53;;;2.33;;
6598;SDS011;3335;43.198;27.918;2022-09-25T11:08:53;3.03;;;2.17;;
6598;SDS011;3335;43.198;27.918;2022-09-25T11:11:28;2.50;;;2.30;;
6598;SDS011;3335;43.198;27.918;2022-09-25T11:13:58;3.63;;;2.10;;
6598;SDS011;3335;43.198;27.918;2022-09-25T11:16:43;2.50;;;2.30;;
6598;SDS011;3335;43.198;27.918;2022-09-25T11:19:16;2.50;;;2.20;;
6598;SDS011;3335;43.198;27.918;2022-09-25T11:21:49;4.27;;;1.90;;
6598;SDS011;3335;43.198;27.918;2022-09-25T11:24:28;2.37;;;2.17;;
6598;SDS011;3335;43.198;27.918;2022-09-25T11:27:06;2.53;;;2.33;;
6598;SDS011;3335;43.198;27.918;2022-09-25T11:29:41;2.70;;;2.50;;
6598;SDS011;3335;43.198;27.918;2022-09-25T11:32:18;2.90;;;2.53;;
6598;SDS011;3335;43.198;27.918;2022-09-25T11:34:57;4.17;;;2.47;;
6598;SDS011;3335;43.198;27.918;2022-09-25T11:37:34;2.40;;;2.17;;
6598;SDS011;3335;43.198;27.918;2022-09-25T11:40:16;3.60;;;2.40;;
6598;SDS011;3335;43.198;27.918;2022-09-25T11:43:14;2.63;;;2.43;;
6598;SDS011;3335;43.198;27.918;2022-09-25T11:45:46;2.50;;;2.30;;
6598;SDS011;3335;43.198;27.918;2022-09-25T11:48:23;2.40;;;2.20;;
6598;SDS011;3335;43.198;27.918;2022-09-25T11:51:10;3.27;;;2.47;;
6598;SDS011;3335;43.198;27.918;2022-09-25T11:53:51;3.23;;;2.67;;
6598;SDS011;3335;43.198;27.918;2022-09-25T11:56:29;3.93;;;2.90;;
6598;SDS011;3335;43.198;27.918;2022-09-25T11:59:11;2.83;;;2.43;;
6598;SDS011;3335;43.198;27.918;2022-09-25T12:01:48;3.67;;;2.67;;
6598;SDS011;3335;43.198;27.918;2022-09-25T12:07:24;3.30;;;2.67;;
6598;SDS011;3335;43.198;27.918;2022-09-25T12:10:20;3.50;;;2.47;;
6598;SDS011;3335;43.198;27.918;2022-09-25T12:12:57;3.10;;;2.80;;
6598;SDS011;3335;43.198;27.918;2022-09-25T12:15:35;2.83;;;2.40;;
6598;SDS011;3335;43.198;27.918;2022-09-25T12:18:17;3.47;;;2.57;;
6598;SDS011;3335;43.198;27.918;2022-09-25T12:20:57;3.27;;;2.93;;
6598;SDS011;3335;43.198;27.918;2022-09-25T12:23:31;4.03;;;3.17;;
6598;SDS011;3335;43.198;27.918;2022-09-25T12:26:03;4.53;;;2.90;;
6598;SDS011;3335;43.198;27.918;2022-09-25T12:28:41;3.13;;;2.83;;
6598;SDS011;3335;43.198;27.918;2022-09-25T12:31:27;3.40;;;3.07;;
6598;SDS011;3335;43.198;27.918;2022-09-25T12:34:06;3.80;;;2.50;;
6598;SDS011;3335;43.198;27.918;2022-09-25T12:36:45;2.80;;;2.60;;
6598;SDS011;3335;43.198;27.918;2022-09-25T12:39:22;3.50;;;2.50;;
6598;SDS011;3335;43.198;27.918;2022-09-25T12:41:58;4.13;;;2.63;;
6598;SDS011;3335;43.198;27.918;2022-09-25T12:44:38;5.43;;;2.90;;
6598;SDS011;3335;43.198;27.918;2022-09-25T12:47:16;4.07;;;3.20;;
6598;SDS011;3335;43.198;27.918;2022-09-25T12:49:54;3.43;;;2.83;;
6598;SDS011;3335;43.198;27.918;2022-09-25T12:52:25;3.50;;;3.00;;
6598;SDS011;3335;43.198;27.918;2022-09-25T12:55:00;3.30;;;2.77;;
6598;SDS011;3335;43.198;27.918;2022-09-25T12:57:34;3.33;;;3.03;;
6598;SDS011;3335;43.198;27.918;2022-09-25T13:00:11;3.80;;;3.20;;
6598;SDS011;3335;43.198;27.918;2022-09-25T13:02:46;2.70;;;2.50;;
6598;SDS011;3335;43.198;27.918;2022-09-25T13:05:18;4.07;;;3.07;;
6598;SDS011;3335;43.198;27.918;2022-09-25T13:07:56;3.80;;;2.93;;
6598;SDS011;3335;43.198;27.918;2022-09-25T13:10:32;4.67;;;3.40;;
6598;SDS011;3335;43.198;27.918;2022-09-25T13:13:04;3.33;;;3.03;;
6598;SDS011;3335;43.198;27.918;2022-09-25T13:15:38;5.80;;;3.40;;
6598;SDS011;3335;43.198;27.918;2022-09-25T13:18:10;4.30;;;3.50;;
6598;SDS011;3335;43.198;27.918;2022-09-25T13:20:52;4.27;;;2.93;;
6598;SDS011;3335;43.198;27.918;2022-09-25T13:23:31;3.03;;;2.60;;
6598;SDS011;3335;43.198;27.918;2022-09-25T13:26:08;3.10;;;2.80;;
6598;SDS011;3335;43.198;27.918;2022-09-25T13:28:38;4.23;;;3.27;;
6598;SDS011;3335;43.198;27.918;2022-09-25T13:31:21;6.40;;;3.30;;
6598;SDS011;3335;43.198;27.918;2022-09-25T13:33:52;4.83;;;3.60;;
6598;SDS011;3335;43.198;27.918;2022-09-25T13:36:33;4.40;;;3.33;;
6598;SDS011;3335;43.198;27.918;2022-09-25T13:39:14;4.00;;;3.00;;
6598;SDS011;3335;43.198;27.918;2022-09-25T13:42:06;3.93;;;3.10;;
6598;SDS011;3335;43.198;27.918;2022-09-25T13:44:47;4.47;;;3.30;;
6598;SDS011;3335;43.198;27.918;2022-09-25T13:50:30;3.43;;;3.00;;
6598;SDS011;3335;43.198;27.918;2022-09-25T13:53:01;3.10;;;2.90;;
6598;SDS011;3335;43.198;27.918;2022-09-25T14:01:55;6.90;;;3.47;;
6598;SDS011;3335;43.198;27.918;2022-09-25T14:04:48;4.97;;;3.47;;
6598;SDS011;3335;43.198;27.918;2022-09-25T14:07:20;3.53;;;2.53;;
6598;SDS011;3335;43.198;27.918;2022-09-25T14:09:54;2.80;;;2.57;;
6598;SDS011;3335;43.198;27.918;2022-09-25T14:12:26;2.90;;;2.70;;
6598;SDS011;3335;43.198;27.918;2022-09-25T14:15:00;3.40;;;3.10;;
6598;SDS011;3335;43.198;27.918;2022-09-25T14:17:31;4.50;;;2.93;;
6598;SDS011;3335;43.198;27.918;2022-09-25T14:20:06;3.40;;;3.10;;
6598;SDS011;3335;43.198;27.918;2022-09-25T14:22:56;3.63;;;3.00;;
6598;SDS011;3335;43.198;27.918;2022-09-25T14:25:28;4.50;;;3.20;;
6598;SDS011;3335;43.198;27.918;2022-09-25T14:28:03;4.20;;;3.30;;
6598;SDS011;3335;43.198;27.918;2022-09-25T14:30:47;4.50;;;3.10;;
6598;SDS011;3335;43.198;27.918;2022-09-25T14:33:24;4.43;;;2.97;;
6598;SDS011;3335;43.198;27.918;2022-09-25T14:36:13;3.40;;;3.10;;
6598;SDS011;3335;43.198;27.918;2022-09-25T14:38:54;3.20;;;2.90;;
6598;SDS011;3335;43.198;27.918;2022-09-25T14:47:33;4.67;;;3.03;;
6598;SDS011;3335;43.198;27.918;2022-09-25T14:50:03;4.60;;;3.67;;
6598;SDS011;3335;43.198;27.918;2022-09-25T14:52:39;8.53;;;3.83;;
6598;SDS011;3335;43.198;27.918;2022-09-25T14:55:09;3.63;;;3.30;;
6598;SDS011;3335;43.198;27.918;2022-09-25T14:57:45;5.37;;;3.77;;
6598;SDS011;3335;43.198;27.918;2022-09-25T15:00:15;4.87;;;3.60;;
6598;SDS011;3335;43.198;27.918;2022-09-25T15:02:49;3.60;;;3.03;;
6598;SDS011;3335;43.198;27.918;2022-09-25T15:05:27;3.80;;;3.50;;
6598;SDS011;3335;43.198;27.918;2022-09-25T15:08:00;6.23;;;3.77;;
6598;SDS011;3335;43.198;27.918;2022-09-25T15:10:45;4.93;;;3.80;;
6598;SDS011;3335;43.198;27.918;2022-09-25T15:13:16;4.07;;;3.03;;
6598;SDS011;3335;43.198;27.918;2022-09-25T15:15:47;4.07;;;3.27;;
6598;SDS011;3335;43.198;27.918;2022-09-25T15:18:35;3.90;;;3.50;;
6598;SDS011;3335;43.198;27.918;2022-09-25T15:21:07;3.53;;;3.23;;
6598;SDS011;3335;43.198;27.918;2022-09-25T15:23:51;3.10;;;2.90;;
6598;SDS011;3335;43.198;27.918;2022-09-25T15:26:22;4.50;;;3.50;;
6598;SDS011;3335;43.198;27.918;2022-09-25T15:28:53;7.00;;;4.20;;
6598;SDS011;3335;43.198;27.918;2022-09-25T15:31:24;4.67;;;3.57;;
6598;SDS011;3335;43.198;27.918;2022-09-25T15:34:07;5.23;;;3.50;;
6598;SDS011;3335;43.198;27.918;2022-09-25T15:36:37;3.63;;;3.30;;
6598;SDS011;3335;43.198;27.918;2022-09-25T15:39:11;3.63;;;3.30;;
6598;SDS011;3335;43.198;27.918;2022-09-25T15:41:41;4.70;;;4.23;;
6598;SDS011;3335;43.198;27.918;2022-09-25T15:44:15;4.53;;;3.70;;
6598;SDS011;3335;43.198;27.918;2022-09-25T15:46:47;4.50;;;3.90;;
6598;SDS011;3335;43.198;27.918;2022-09-25T15:49:17;3.73;;;3.43;;
6598;SDS011;3335;43.198;27.918;2022-09-25T15:51:49;4.47;;;3.67;;
6598;SDS011;3335;43.198;27.918;2022-09-25T15:54:34;6.27;;;4.00;;
6598;SDS011;3335;43.198;27.918;2022-09-25T15:57:05;4.10;;;3.70;;
6598;SDS011;3335;43.198;27.918;2022-09-25T15:59:37;4.20;;;3.80;;
6598;SDS011;3335;43.198;27.918;2022-09-25T16:02:28;4.83;;;3.63;;
6598;SDS011;3335;43.198;27.918;2022-09-25T16:05:15;4.67;;;3.90;;
6598;SDS011;3335;43.198;27.918;2022-09-25T16:07:45;4.13;;;3.80;;
6598;SDS011;3335;43.198;27.918;2022-09-25T16:10:31;4.57;;;3.60;;
6598;SDS011;3335;43.198;27.918;2022-09-25T16:12:59;4.97;;;4.00;;
6598;SDS011;3335;43.198;27.918;2022-09-25T16:15:43;5.23;;;3.80;;
6598;SDS011;3335;43.198;27.918;2022-09-25T16:18:25;6.90;;;4.10;;
6598;SDS011;3335;43.198;27.918;2022-09-25T16:21:06;3.93;;;3.63;;
6598;SDS011;3335;43.198;27.918;2022-09-25T16:23:40;5.73;;;4.97;;
6598;SDS011;3335;43.198;27.918;2022-09-25T16:26:17;5.77;;;4.57;;
6598;SDS011;3335;43.198;27.918;2022-09-25T16:28:47;4.20;;;3.80;;
6598;SDS011;3335;43.198;27.918;2022-09-25T16:31:23;4.33;;;3.90;;
6598;SDS011;3335;43.198;27.918;2022-09-25T16:33:51;4.87;;;3.87;;
6598;SDS011;3335;43.198;27.918;2022-09-25T16:36:21;4.53;;;4.10;;
6598;SDS011;3335;43.198;27.918;2022-09-25T16:39:02;3.67;;;3.37;;
6598;SDS011;3335;43.198;27.918;2022-09-25T16:41:39;3.93;;;3.63;;
6598;SDS011;3335;43.198;27.918;2022-09-25T16:44:10;3.83;;;3.53;;
6598;SDS011;3335;43.198;27.918;2022-09-25T16:46:39;4.03;;;3.63;;
6598;SDS011;3335;43.198;27.918;2022-09-25T16:49:07;4.33;;;3.93;;
6598;SDS011;3335;43.198;27.918;2022-09-25T16:51:36;4.10;;;3.13;;
6598;SDS011;3335;43.198;27.918;2022-09-25T16:54:10;5.80;;;3.80;;
6598;SDS011;3335;43.198;27.918;2022-09-25T16:56:41;4.13;;;3.13;;
6598;SDS011;3335;43.198;27.918;2022-09-25T16:59:13;3.80;;;3.40;;
6598;SDS011;3335;43.198;27.918;2022-09-25T17:01:42;4.57;;;3.63;;
6598;SDS011;3335;43.198;27.918;2022-09-25T17:04:11;5.43;;;3.30;;
6598;SDS011;3335;43.198;27.918;2022-09-25T17:06:39;3.80;;;3.23;;
6598;SDS011;3335;43.198;27.918;2022-09-25T17:09:10;5.07;;;3.47;;
6598;SDS011;3335;43.198;27.918;2022-09-25T17:11:39;6.77;;;4.83;;
6598;SDS011;3335;43.198;27.918;2022-09-25T17:14:12;5.03;;;4.43;;
6598;SDS011;3335;43.198;27.918;2022-09-25T17:16:48;6.30;;;5.67;;
6598;SDS011;3335;43.198;27.918;2022-09-25T17:19:15;5.07;;;3.80;;
6598;SDS011;3335;43.198;27.918;2022-09-25T17:21:43;6.27;;;3.87;;
6598;SDS011;3335;43.198;27.918;2022-09-25T17:24:14;4.43;;;3.77;;
6598;SDS011;3335;43.198;27.918;2022-09-25T17:26:43;7.00;;;4.23;;
6598;SDS011;3335;43.198;27.918;2022-09-25T17:29:11;3.27;;;2.97;;
6598;SDS011;3335;43.198;27.918;2022-09-25T17:31:39;3.43;;;3.13;;
6598;SDS011;3335;43.198;27.918;2022-09-25T17:34:11;7.73;;;5.40;;
6598;SDS011;3335;43.198;27.918;2022-09-25T17:36:42;6.97;;;5.10;;
6598;SDS011;3335;43.198;27.918;2022-09-25T17:39:12;10.80;;;6.63;;
6598;SDS011;3335;43.198;27.918;2022-09-25T17:41:39;8.30;;;5.73;;